Japan Airlines Virtual Airport Information Service

Myrtle Beach International Airport

ICAO: KMYR Country: United States
Latitude: 33.6797 Longitude: -78.9283
Latest Arrival : AAL1005 (1A) (KCLT-KMYR) Latest Departure : AAL1005 (1B) (KMYR-KCLT)


WX CaptureLIVE
Data provided by noaa.gov | Fetched at 08:53:32

METAR : KMYR 090756Z AUTO 03005KT 10SM OVC006 24/24 A2981 RMK AO2 SLP093 T02440239

TAF : KMYR 090520Z 0906/1006 34004KT P6SM BKN011 TEMPO 0907/0911 BKN005 FM091200 35006KT P6SM BKN010 FM091800 34008KT P6SM SCT020 BKN040


Runway Data for KMYR
Data provided by openaviationdata.com

Runway ID Mag Var Hdg Length Elevation Surface ILS Freq ILS Id ILS Slope
18 -7 175° 9519 ft 25 ft Asphalt 109.5 IMYR 3
36 -7 355° 9519 ft 25 ft Asphalt 111.9 IBSQ 3

Myrtle Beach International Airport, United States
Use only for reference purposes



Not for navigational purposes.